createdAt,value
2019-04-10T00:00:51.280Z,95.70
2019-04-10T00:01:27.844Z,95.40
2019-04-10T00:02:01.415Z,95.20
2019-04-10T00:02:34.088Z,95.30
2019-04-10T00:03:06.614Z,95.20
2019-04-10T00:03:41.990Z,95.10
2019-04-10T00:04:14.628Z,95.10
2019-04-10T00:04:47.430Z,95.00
2019-04-10T00:05:20.073Z,95.00
2019-04-10T00:05:53.302Z,94.90
2019-04-10T00:06:25.852Z,95.10
2019-04-10T00:07:09.301Z,95.30
2019-04-10T00:07:33.230Z,95.40
2019-04-10T00:08:06.256Z,95.60
2019-04-10T00:08:38.849Z,95.70
2019-04-10T00:09:11.398Z,95.90
2019-04-10T00:09:45.342Z,95.80
2019-04-10T00:10:18.088Z,95.80
2019-04-10T00:10:52.207Z,95.90
2019-04-10T00:11:25.086Z,95.90
2019-04-10T00:11:57.635Z,96.00
2019-04-10T00:12:31.764Z,95.90
2019-04-10T00:13:05.202Z,96.00
2019-04-10T00:13:38.542Z,96.00
2019-04-10T00:14:12.269Z,96.00
2019-04-10T00:14:45.046Z,96.00
2019-04-10T00:15:18.413Z,96.20
2019-04-10T00:15:51.366Z,96.40
2019-04-10T00:16:24.486Z,96.60
2019-04-10T00:16:57.149Z,96.40
2019-04-10T00:17:31.118Z,96.30
2019-04-10T00:18:03.782Z,96.10
2019-04-10T00:18:37.947Z,95.80
2019-04-10T00:19:10.688Z,95.80
2019-04-10T00:19:43.673Z,96.00
2019-04-10T00:20:16.360Z,96.20
2019-04-10T00:20:49.146Z,96.30
2019-04-10T00:21:22.965Z,96.30
2019-04-10T00:21:55.922Z,96.00
2019-04-10T00:22:28.509Z,95.90
2019-04-10T00:23:01.090Z,95.90
2019-04-10T00:23:33.627Z,95.90
2019-04-10T00:24:06.199Z,96.30
2019-04-10T00:24:38.718Z,96.50
2019-04-10T00:25:11.346Z,96.50
2019-04-10T00:25:45.254Z,96.60
2019-04-10T00:26:18.582Z,96.90
2019-04-10T00:26:52.209Z,96.90
2019-04-10T00:27:26.237Z,97.00
2019-04-10T00:27:59.021Z,97.10
2019-04-10T00:28:31.795Z,97.20
2019-04-10T00:29:04.419Z,97.20
2019-04-10T00:29:36.983Z,97.20
2019-04-10T00:30:09.719Z,97.30
2019-04-10T00:30:43.065Z,97.70
2019-04-10T00:31:15.823Z,97.50
2019-04-10T00:31:48.751Z,97.60
2019-04-10T00:32:21.662Z,97.80
2019-04-10T00:32:54.470Z,97.90
2019-04-10T00:33:27.397Z,97.70
2019-04-10T00:34:00.835Z,97.60
2019-04-10T00:34:33.953Z,97.60
2019-04-10T00:35:06.619Z,97.60
2019-04-10T00:35:39.376Z,97.60
2019-04-10T00:36:12.402Z,97.60
2019-04-10T00:36:45.636Z,97.60
2019-04-10T00:37:23.636Z,97.60
2019-04-10T00:37:53.415Z,97.30
2019-04-10T00:38:26.399Z,97.00
2019-04-10T00:38:59.308Z,97.00
2019-04-10T00:39:32.854Z,97.00
2019-04-10T00:40:06.813Z,97.10
2019-04-10T00:40:39.854Z,96.90
2019-04-10T00:41:12.403Z,96.80
2019-04-10T00:41:44.941Z,96.70
2019-04-10T00:42:17.492Z,96.70
2019-04-10T00:42:50.019Z,96.70
2019-04-10T00:43:22.656Z,96.70
2019-04-10T00:43:55.374Z,96.70
2019-04-10T00:44:27.951Z,96.80
2019-04-10T00:45:00.472Z,96.80
2019-04-10T00:45:33.465Z,96.80
2019-04-10T00:46:06.225Z,96.80
2019-04-10T00:46:38.826Z,96.90
2019-04-10T00:47:12.802Z,96.80
2019-04-10T00:47:45.798Z,96.90
2019-04-10T00:48:19.557Z,97.00
2019-04-10T00:48:52.586Z,97.10
2019-04-10T00:49:26.016Z,97.20
2019-04-10T00:49:59.342Z,97.30
2019-04-10T00:50:32.774Z,97.40
2019-04-10T00:51:05.333Z,97.60
2019-04-10T00:51:39.462Z,97.80
2019-04-10T00:52:12.151Z,97.60
2019-04-10T00:52:46.180Z,97.70
2019-04-10T00:53:19.076Z,97.70
2019-04-10T00:53:51.752Z,97.70
2019-04-10T00:54:25.742Z,97.90
2019-04-10T00:54:59.390Z,97.70
2019-04-10T00:55:32.173Z,97.70
2019-04-10T00:56:05.175Z,97.70
2019-04-10T00:56:38.938Z,97.70
2019-04-10T00:57:11.557Z,97.60
2019-04-10T00:57:44.211Z,97.50
2019-04-10T00:58:16.734Z,97.50
2019-04-10T00:58:49.667Z,97.50
2019-04-10T00:59:22.585Z,97.50
2019-04-10T00:59:55.130Z,97.60
2019-04-10T01:00:28.705Z,97.60
2019-04-10T01:01:01.668Z,97.70
2019-04-10T01:01:34.206Z,97.80
2019-04-10T01:02:07.984Z,97.80
2019-04-10T01:02:40.812Z,97.80
2019-04-10T01:03:33.709Z,97.80
2019-04-10T01:04:06.868Z,97.70
2019-04-10T01:04:39.583Z,98.00
2019-04-10T01:05:13.141Z,98.10
2019-04-10T01:05:45.615Z,98.20
2019-04-10T01:06:18.563Z,98.20
2019-04-10T01:06:51.034Z,98.30
2019-04-10T01:07:33.746Z,98.40
2019-04-10T01:07:58.419Z,98.40
2019-04-10T01:08:31.360Z,98.50
2019-04-10T01:09:07.184Z,98.50
2019-04-10T01:09:39.752Z,98.50
2019-04-10T01:10:12.591Z,98.50
2019-04-10T01:10:46.242Z,98.50
2019-04-10T01:11:19.025Z,98.60
2019-04-10T01:11:51.738Z,98.60
2019-04-10T01:12:24.251Z,98.70
2019-04-10T01:12:56.781Z,98.80
2019-04-10T01:13:29.672Z,98.80
2019-04-10T01:14:02.339Z,98.70
2019-04-10T01:14:35.879Z,98.70
2019-04-10T01:15:09.962Z,98.70
2019-04-10T01:15:42.734Z,98.70
2019-04-10T01:16:16.419Z,98.80
2019-04-10T01:16:49.475Z,98.70
2019-04-10T01:17:22.326Z,98.60
2019-04-10T01:17:54.845Z,98.40
2019-04-10T01:18:28.946Z,98.50
2019-04-10T01:19:02.216Z,98.60
2019-04-10T01:19:34.742Z,98.70
2019-04-10T01:20:07.497Z,98.70
2019-04-10T01:20:40.017Z,98.80
2019-04-10T01:21:12.747Z,98.90
2019-04-10T01:21:46.439Z,98.70
2019-04-10T01:22:19.115Z,98.80
2019-04-10T01:22:52.401Z,98.90
2019-04-10T01:23:24.922Z,98.90
2019-04-10T01:23:57.834Z,98.80
2019-04-10T01:24:30.391Z,98.70
2019-04-10T01:25:03.211Z,98.70
2019-04-10T01:25:36.665Z,98.70
2019-04-10T01:26:10.681Z,99.00
2019-04-10T01:26:43.367Z,98.80
2019-04-10T01:27:15.996Z,98.90
2019-04-10T01:27:50.050Z,99.00
2019-04-10T01:28:22.781Z,99.00
2019-04-10T01:28:55.643Z,99.00
2019-04-10T01:29:29.229Z,99.10
2019-04-10T01:30:02.399Z,98.80
2019-04-10T01:30:35.015Z,98.60
2019-04-10T01:31:07.917Z,98.60
2019-04-10T01:31:41.436Z,98.50
2019-04-10T01:32:15.299Z,98.30
2019-04-10T01:32:48.827Z,98.30
2019-04-10T01:33:22.754Z,98.10
2019-04-10T01:33:56.820Z,97.90
2019-04-10T01:34:29.595Z,97.80
2019-04-10T01:35:02.611Z,97.80
2019-04-10T01:35:35.308Z,98.00
2019-04-10T01:36:08.861Z,97.90
2019-04-10T01:36:41.547Z,98.00
2019-04-10T01:37:14.167Z,98.20
2019-04-10T01:37:53.571Z,98.30
2019-04-10T01:38:21.812Z,98.30
2019-04-10T01:38:54.878Z,98.60
2019-04-10T01:39:30.303Z,98.90
2019-04-10T01:40:04.505Z,99.10
2019-04-10T01:40:37.339Z,99.10
2019-04-10T01:41:09.976Z,99.20
2019-04-10T01:41:42.518Z,99.40
2019-04-10T01:42:15.051Z,99.30
2019-04-10T01:42:59.922Z,99.20
2019-04-10T01:43:22.509Z,99.30
2019-04-10T01:43:55.555Z,99.40
2019-04-10T01:44:28.894Z,99.40
2019-04-10T01:45:02.888Z,99.30
2019-04-10T01:45:35.698Z,99.20
2019-04-10T01:46:08.416Z,99.00
2019-04-10T01:46:42.321Z,99.00
2019-04-10T01:47:15.229Z,99.00
2019-04-10T01:47:47.866Z,99.00
2019-04-10T01:48:20.411Z,99.10
2019-04-10T01:48:53.911Z,99.10
2019-04-10T01:49:26.509Z,99.00
2019-04-10T01:49:59.447Z,99.30
2019-04-10T01:50:34.754Z,99.10
2019-04-10T01:51:07.501Z,99.10
2019-04-10T01:51:41.367Z,99.10
2019-04-10T01:52:15.067Z,99.20
2019-04-10T01:52:47.598Z,99.20
2019-04-10T01:53:20.143Z,99.20
2019-04-10T01:53:53.007Z,99.20
2019-04-10T01:54:25.651Z,99.30
2019-04-10T01:54:59.627Z,99.20
2019-04-10T01:55:34.094Z,99.20
2019-04-10T01:56:20.401Z,99.20
2019-04-10T01:56:41.884Z,99.30
2019-04-10T01:57:14.695Z,99.30
2019-04-10T01:57:48.350Z,99.40
2019-04-10T01:58:25.365Z,99.40
2019-04-10T01:58:58.018Z,99.40
2019-04-10T01:59:32.726Z,99.50
2019-04-10T02:00:06.779Z,99.60
2019-04-10T02:00:43.583Z,99.70
2019-04-10T02:01:20.691Z,99.70
2019-04-10T02:02:14.809Z,99.80
2019-04-10T02:02:51.775Z,99.90
2019-04-10T02:03:25.719Z,99.70
2019-04-10T02:03:58.718Z,99.50
2019-04-10T02:04:31.250Z,99.50
2019-04-10T02:05:04.676Z,99.60
2019-04-10T02:05:37.211Z,99.60
2019-04-10T02:06:09.875Z,99.80
2019-04-10T02:06:43.260Z,99.90
2019-04-10T02:07:16.165Z,99.90
2019-04-10T02:08:01.323Z,99.90
2019-04-10T02:08:23.625Z,99.90
2019-04-10T02:08:56.614Z,99.70
2019-04-10T02:09:29.752Z,99.70
2019-04-10T02:10:03.595Z,99.80
2019-04-10T02:10:36.465Z,99.80
2019-04-10T02:11:08.987Z,99.80
2019-04-10T02:11:42.994Z,99.90
2019-04-10T02:12:16.666Z,99.90
2019-04-10T02:12:50.680Z,99.80
2019-04-10T02:13:23.471Z,99.50
2019-04-10T02:13:58.135Z,99.40
2019-04-10T02:14:31.944Z,99.20
2019-04-10T02:15:05.397Z,99.30
2019-04-10T02:15:38.468Z,99.30
2019-04-10T02:16:11.441Z,99.30
2019-04-10T02:16:43.954Z,99.50
2019-04-10T02:17:16.788Z,99.50
2019-04-10T02:17:49.771Z,99.70
2019-04-10T02:18:23.432Z,99.60
2019-04-10T02:18:56.150Z,99.60
2019-04-10T02:19:30.153Z,99.60
2019-04-10T02:20:03.655Z,99.50
2019-04-10T02:20:36.773Z,99.60
2019-04-10T02:21:09.703Z,99.90
2019-04-10T02:21:42.262Z,99.90
2019-04-10T02:22:14.809Z,99.90
2019-04-10T02:22:48.003Z,99.90
2019-04-10T02:23:21.036Z,99.90
2019-04-10T02:23:54.492Z,99.90
2019-04-10T02:24:27.286Z,99.90
2019-04-10T02:24:59.992Z,99.90
2019-04-10T02:25:33.151Z,99.90
2019-04-10T02:26:06.114Z,99.90
2019-04-10T02:26:38.661Z,99.90
2019-04-10T02:27:11.216Z,99.90
2019-04-10T02:27:44.642Z,99.90
2019-04-10T02:28:17.322Z,99.90
2019-04-10T02:28:49.906Z,99.90
2019-04-10T02:29:23.802Z,99.90
2019-04-10T02:29:56.513Z,99.90
2019-04-10T02:30:30.346Z,99.90
2019-04-10T02:31:04.712Z,99.90
2019-04-10T02:31:39.087Z,99.90
2019-04-10T02:32:12.264Z,99.90
2019-04-10T02:32:47.656Z,99.90
2019-04-10T02:33:19.715Z,99.90
2019-04-10T02:33:53.628Z,99.90
2019-04-10T02:34:26.278Z,99.90
2019-04-10T02:34:59.166Z,99.90
2019-04-10T02:35:31.705Z,99.90
2019-04-10T02:36:05.467Z,99.90
2019-04-10T02:36:38.697Z,99.90
2019-04-10T02:37:12.806Z,99.90
2019-04-10T02:37:49.363Z,99.90
2019-04-10T02:38:35.968Z,99.90
2019-04-10T02:39:06.666Z,99.90
2019-04-10T02:39:36.217Z,99.90
2019-04-10T02:40:05.634Z,99.90
2019-04-10T02:40:39.182Z,99.90
2019-04-10T02:41:14.012Z,99.90
2019-04-10T02:41:46.679Z,99.90
2019-04-10T02:42:20.720Z,99.90
2019-04-10T02:42:54.685Z,99.90
2019-04-10T02:43:29.032Z,99.90
2019-04-10T02:44:02.968Z,99.90
2019-04-10T02:44:37.592Z,99.90
2019-04-10T02:45:12.299Z,99.90
2019-04-10T02:45:44.986Z,99.90
2019-04-10T02:46:17.634Z,99.90
2019-04-10T02:46:51.750Z,99.90
2019-04-10T02:47:24.455Z,99.90
2019-04-10T02:47:57.021Z,99.90
2019-04-10T02:48:29.695Z,99.90
2019-04-10T02:49:03.816Z,99.90
2019-04-10T02:49:36.669Z,99.90
2019-04-10T02:50:12.522Z,99.90
2019-04-10T02:50:46.016Z,99.90
2019-04-10T02:51:19.993Z,99.90
2019-04-10T02:51:52.711Z,99.90
2019-04-10T02:52:25.294Z,99.90
2019-04-10T02:52:59.227Z,99.90
2019-04-10T02:53:31.829Z,99.90
2019-04-10T02:54:04.980Z,99.90
2019-04-10T02:54:39.263Z,99.90
2019-04-10T02:55:12.270Z,99.90
2019-04-10T02:55:44.802Z,99.90
2019-04-10T02:56:18.012Z,99.90
2019-04-10T02:56:50.743Z,99.90
2019-04-10T02:57:23.285Z,99.90
2019-04-10T02:57:56.436Z,99.90
2019-04-10T02:58:30.139Z,99.90
2019-04-10T02:59:02.900Z,99.90
2019-04-10T02:59:37.502Z,99.90
2019-04-10T03:00:10.905Z,99.90
2019-04-10T03:00:46.268Z,99.90
2019-04-10T03:01:19.884Z,99.90
2019-04-10T03:01:52.794Z,99.90
2019-04-10T03:02:26.595Z,99.90
2019-04-10T03:02:59.545Z,99.90
2019-04-10T03:03:34.304Z,99.90
2019-04-10T03:04:09.034Z,99.90
2019-04-10T03:04:42.506Z,99.90
2019-04-10T03:05:15.949Z,99.90
2019-04-10T03:05:50.829Z,99.90
2019-04-10T03:06:24.088Z,99.90
2019-04-10T03:06:57.618Z,99.90
2019-04-10T03:07:31.940Z,99.90
2019-04-10T03:08:05.422Z,99.90
2019-04-10T03:08:57.702Z,99.90
2019-04-10T03:09:30.169Z,99.90
2019-04-10T03:10:00.406Z,99.90
2019-04-10T03:10:30.053Z,99.90
2019-04-10T03:11:03.597Z,99.90
2019-04-10T03:11:32.938Z,99.90
2019-04-10T03:12:06.291Z,99.90
2019-04-10T03:12:40.971Z,99.90
2019-04-10T03:13:13.788Z,99.90
2019-04-10T03:13:47.292Z,99.90
2019-04-10T03:14:21.173Z,99.90
2019-04-10T03:14:54.936Z,99.90
2019-04-10T03:15:29.525Z,99.90
2019-04-10T03:16:03.117Z,99.90
2019-04-10T03:16:35.765Z,99.90
2019-04-10T03:17:08.320Z,99.90
2019-04-10T03:17:41.976Z,99.90
2019-04-10T03:18:14.980Z,99.90
2019-04-10T03:18:47.513Z,99.90
2019-04-10T03:19:21.247Z,99.90
2019-04-10T03:19:53.969Z,99.90
2019-04-10T03:20:26.658Z,99.90
2019-04-10T03:20:59.908Z,99.90
2019-04-10T03:21:33.325Z,99.90
2019-04-10T03:22:07.890Z,99.90
2019-04-10T03:22:41.055Z,99.90
2019-04-10T03:23:13.927Z,99.90
2019-04-10T03:23:47.349Z,99.90
2019-04-10T03:24:21.200Z,99.90
2019-04-10T03:24:54.746Z,99.90
2019-04-10T03:25:28.858Z,99.90
2019-04-10T03:26:01.556Z,99.90
2019-04-10T03:26:34.768Z,99.90
2019-04-10T03:27:07.658Z,99.90
2019-04-10T03:27:40.698Z,99.90
2019-04-10T03:28:13.322Z,99.90
2019-04-10T03:28:45.868Z,99.90
2019-04-10T03:29:18.439Z,99.90
2019-04-10T03:29:51.889Z,99.90
2019-04-10T03:30:24.741Z,99.90
2019-04-10T03:31:00.026Z,99.90
2019-04-10T03:31:34.219Z,99.90
2019-04-10T03:32:28.580Z,99.90
2019-04-10T03:33:21.781Z,99.90
2019-04-10T03:34:16.770Z,99.90
2019-04-10T03:34:51.273Z,99.90
2019-04-10T03:35:30.549Z,99.90
2019-04-10T03:36:03.919Z,99.90
2019-04-10T03:36:38.169Z,99.90
2019-04-10T03:37:11.740Z,99.90
2019-04-10T03:37:44.713Z,99.90
2019-04-10T03:38:18.166Z,99.90
2019-04-10T03:38:58.563Z,99.90
2019-04-10T03:39:25.767Z,99.90
2019-04-10T03:39:59.318Z,99.90
2019-04-10T03:40:32.302Z,99.90
2019-04-10T03:41:05.017Z,99.90
2019-04-10T03:41:40.024Z,99.90
2019-04-10T03:42:12.745Z,99.90
2019-04-10T03:42:45.490Z,99.90
2019-04-10T03:43:18.119Z,99.90
2019-04-10T03:43:52.111Z,99.90
2019-04-10T03:44:25.021Z,99.90
2019-04-10T03:44:57.695Z,99.90
2019-04-10T03:45:30.781Z,99.90
2019-04-10T03:46:03.405Z,99.90
2019-04-10T03:46:38.387Z,99.90
2019-04-10T03:47:11.295Z,99.90
2019-04-10T03:47:44.231Z,99.90
2019-04-10T03:48:17.326Z,99.90
2019-04-10T03:48:50.184Z,99.90
2019-04-10T03:49:22.728Z,99.90
2019-04-10T03:49:55.396Z,99.90
2019-04-10T03:50:27.934Z,99.90
2019-04-10T03:51:01.259Z,99.90
2019-04-10T03:51:34.075Z,99.90
2019-04-10T03:52:07.256Z,99.90
2019-04-10T03:52:41.004Z,99.90
2019-04-10T03:53:14.022Z,99.90
2019-04-10T03:53:46.690Z,99.90
2019-04-10T03:54:20.713Z,99.90
2019-04-10T03:54:54.515Z,99.90
2019-04-10T03:55:27.155Z,99.90
2019-04-10T03:55:59.680Z,99.90
2019-04-10T03:56:32.551Z,99.90
2019-04-10T03:57:05.082Z,99.90
2019-04-10T03:57:38.522Z,99.90
2019-04-10T03:58:11.367Z,99.90
2019-04-10T03:58:44.212Z,99.90
2019-04-10T03:59:16.742Z,99.90
2019-04-10T03:59:49.740Z,99.90
2019-04-10T04:00:23.755Z,99.90
2019-04-10T04:00:56.519Z,99.90
2019-04-10T04:01:29.182Z,99.90
2019-04-10T04:02:01.763Z,99.90
2019-04-10T04:02:34.308Z,99.90
2019-04-10T04:03:08.490Z,99.90
2019-04-10T04:03:41.129Z,99.90
2019-04-10T04:04:14.044Z,99.90
2019-04-10T04:04:47.966Z,99.90
2019-04-10T04:05:22.343Z,99.90
2019-04-10T04:05:55.320Z,99.90
2019-04-10T04:06:27.942Z,99.90
2019-04-10T04:07:00.506Z,99.90
2019-04-10T04:07:33.054Z,99.90
2019-04-10T04:08:05.632Z,99.90
2019-04-10T04:08:39.519Z,99.90
2019-04-10T04:09:13.520Z,99.90
2019-04-10T04:09:46.440Z,99.90
2019-04-10T04:10:20.404Z,99.90
2019-04-10T04:10:53.487Z,99.90
2019-04-10T04:11:26.025Z,99.90
2019-04-10T04:11:59.035Z,99.90
2019-04-10T04:12:31.576Z,99.90
2019-04-10T04:13:05.767Z,99.90
2019-04-10T04:13:39.687Z,99.90
2019-04-10T04:14:12.402Z,99.90
2019-04-10T04:14:44.991Z,99.90
2019-04-10T04:15:17.763Z,99.90
2019-04-10T04:15:50.696Z,99.90
2019-04-10T04:16:23.231Z,99.90
2019-04-10T04:16:55.782Z,99.90
2019-04-10T04:17:28.372Z,99.90
2019-04-10T04:18:01.194Z,99.90
2019-04-10T04:18:33.778Z,99.90
2019-04-10T04:19:06.319Z,99.90
2019-04-10T04:19:39.941Z,99.90
2019-04-10T04:20:12.883Z,99.90
2019-04-10T04:20:45.800Z,99.90
2019-04-10T04:21:19.549Z,99.90
2019-04-10T04:21:52.380Z,99.90
2019-04-10T04:22:25.280Z,99.90
2019-04-10T04:22:57.826Z,99.90
2019-04-10T04:23:30.734Z,99.90
2019-04-10T04:24:03.651Z,99.90
2019-04-10T04:24:36.255Z,99.90
2019-04-10T04:25:08.795Z,99.90
2019-04-10T04:25:41.399Z,99.90
2019-04-10T04:26:14.821Z,99.90
2019-04-10T04:26:48.608Z,99.90
2019-04-10T04:27:21.630Z,99.90
2019-04-10T04:27:54.368Z,99.90
2019-04-10T04:28:27.673Z,99.90
2019-04-10T04:29:00.698Z,99.90
2019-04-10T04:29:34.501Z,99.90
2019-04-10T04:30:08.463Z,99.90
2019-04-10T04:30:41.958Z,99.90
2019-04-10T04:31:15.971Z,99.90
2019-04-10T04:31:48.992Z,99.90
2019-04-10T04:32:21.788Z,99.90
2019-04-10T04:32:54.380Z,99.90
2019-04-10T04:33:27.653Z,99.90
2019-04-10T04:34:01.913Z,99.90
2019-04-10T04:34:34.719Z,99.90
2019-04-10T04:35:15.384Z,99.90
2019-04-10T04:35:48.805Z,99.90
2019-04-10T04:36:24.592Z,99.90
2019-04-10T04:36:58.118Z,99.90
2019-04-10T04:37:31.197Z,99.90
2019-04-10T04:38:07.083Z,99.90
2019-04-10T04:38:41.022Z,99.90
2019-04-10T04:39:21.560Z,99.90
2019-04-10T04:39:48.793Z,99.90
2019-04-10T04:40:21.755Z,99.90
2019-04-10T04:40:54.877Z,99.90
2019-04-10T04:41:27.806Z,99.90
2019-04-10T04:42:00.856Z,99.90
2019-04-10T04:42:35.559Z,99.90
2019-04-10T04:43:08.589Z,99.90
2019-04-10T04:43:44.803Z,99.90
2019-04-10T04:44:18.076Z,99.90
2019-04-10T04:44:52.091Z,99.90
2019-04-10T04:45:25.688Z,99.90
2019-04-10T04:45:59.189Z,99.90
2019-04-10T04:46:32.411Z,99.90
2019-04-10T04:47:06.202Z,99.90
2019-04-10T04:47:39.157Z,99.90
2019-04-10T04:48:12.089Z,99.90
2019-04-10T04:48:45.366Z,99.90
2019-04-10T04:49:21.476Z,99.90
2019-04-10T04:49:54.632Z,99.90
2019-04-10T04:50:29.191Z,99.90
2019-04-10T04:51:03.159Z,99.90
2019-04-10T04:51:37.771Z,99.90
2019-04-10T04:52:12.731Z,99.90
2019-04-10T04:52:45.589Z,99.90
2019-04-10T04:53:19.589Z,99.90
2019-04-10T04:53:52.399Z,99.90
2019-04-10T04:54:25.566Z,99.90
2019-04-10T04:54:58.276Z,99.90
2019-04-10T04:55:31.040Z,99.90
2019-04-10T04:56:04.101Z,99.90
2019-04-10T04:56:36.846Z,99.90
2019-04-10T04:57:09.427Z,99.90
2019-04-10T04:57:42.265Z,99.90
2019-04-10T04:58:18.021Z,99.90
2019-04-10T04:58:51.718Z,99.90
2019-04-10T04:59:26.713Z,99.90
2019-04-10T04:59:59.782Z,99.90
2019-04-10T05:00:32.302Z,99.90
2019-04-10T05:01:04.843Z,99.90
2019-04-10T05:01:38.377Z,99.90
2019-04-10T05:02:12.013Z,99.90
2019-04-10T05:02:44.832Z,99.90
2019-04-10T05:03:18.357Z,99.90
2019-04-10T05:03:52.630Z,99.90
2019-04-10T05:04:25.174Z,99.90
2019-04-10T05:04:58.156Z,99.90
2019-04-10T05:05:33.394Z,99.90
2019-04-10T05:06:06.155Z,99.90
2019-04-10T05:06:39.626Z,99.90
2019-04-10T05:07:13.545Z,99.90
2019-04-10T05:07:58.489Z,99.90
2019-04-10T05:08:21.820Z,99.90
2019-04-10T05:08:54.820Z,99.90
2019-04-10T05:09:34.365Z,99.90
2019-04-10T05:10:02.311Z,99.90
2019-04-10T05:10:35.683Z,99.90
2019-04-10T05:11:09.770Z,99.90
2019-04-10T05:11:42.733Z,99.90
2019-04-10T05:12:16.401Z,99.90
2019-04-10T05:12:49.519Z,99.90
2019-04-10T05:13:22.259Z,99.90
2019-04-10T05:13:55.825Z,99.90
2019-04-10T05:14:29.486Z,99.90
2019-04-10T05:15:02.624Z,99.90
2019-04-10T05:15:35.279Z,99.90
2019-04-10T05:16:08.220Z,99.10
2019-04-10T05:16:41.661Z,98.00
2019-04-10T05:17:16.685Z,97.60
2019-04-10T05:17:49.348Z,96.00
2019-04-10T05:18:21.942Z,94.50
2019-04-10T05:18:54.539Z,93.10
2019-04-10T05:19:27.562Z,92.10
2019-04-10T05:20:00.835Z,90.60
2019-04-10T05:20:44.125Z,87.20
2019-04-10T05:21:08.510Z,85.00
2019-04-10T05:21:41.476Z,82.90
2019-04-10T05:22:14.521Z,81.40
2019-04-10T05:22:47.067Z,78.60
2019-04-10T05:23:21.074Z,77.10
2019-04-10T05:23:53.906Z,73.60
2019-04-10T05:24:27.917Z,71.60
2019-04-10T05:25:00.718Z,70.00
2019-04-10T05:25:34.407Z,69.10
2019-04-10T05:26:08.101Z,68.40
2019-04-10T05:26:40.759Z,66.30
2019-04-10T05:27:14.126Z,65.30
2019-04-10T05:27:47.437Z,64.20
2019-04-10T05:28:20.445Z,64.10
2019-04-10T05:28:53.139Z,62.60
2019-04-10T05:29:29.302Z,61.70
2019-04-10T05:30:02.310Z,60.70
2019-04-10T05:30:35.713Z,60.00
2019-04-10T05:31:08.678Z,60.00
2019-04-10T05:31:42.596Z,60.80
2019-04-10T05:32:15.883Z,61.20
2019-04-10T05:32:49.354Z,61.40
2019-04-10T05:33:22.575Z,62.00
2019-04-10T05:33:55.348Z,62.60
2019-04-10T05:34:27.903Z,63.50
2019-04-10T05:35:01.176Z,64.40
2019-04-10T05:35:36.409Z,65.10
2019-04-10T05:36:09.386Z,65.90
2019-04-10T05:36:42.064Z,67.30
2019-04-10T05:37:15.630Z,67.60
2019-04-10T05:37:48.791Z,68.90
2019-04-10T05:38:21.453Z,70.90
2019-04-10T05:38:54.453Z,71.90
2019-04-10T05:39:39.140Z,72.80
2019-04-10T05:40:01.611Z,73.90
2019-04-10T05:40:34.727Z,75.10
2019-04-10T05:41:07.393Z,75.90
2019-04-10T05:41:40.000Z,76.50
2019-04-10T05:42:12.776Z,77.80
2019-04-10T05:42:45.373Z,78.80
2019-04-10T05:43:18.198Z,80.20
2019-04-10T05:43:50.932Z,81.40
2019-04-10T05:44:23.694Z,82.60
2019-04-10T05:44:56.583Z,82.60
2019-04-10T05:45:29.634Z,83.00
2019-04-10T05:46:02.856Z,84.20
2019-04-10T05:46:36.692Z,85.40
2019-04-10T05:47:10.342Z,86.40
2019-04-10T05:47:42.966Z,87.00
2019-04-10T05:48:15.516Z,86.70
2019-04-10T05:48:49.045Z,86.10
2019-04-10T05:49:22.521Z,85.60
2019-04-10T05:49:55.761Z,86.00
2019-04-10T05:50:28.263Z,87.80
2019-04-10T05:51:04.313Z,88.80
2019-04-10T05:51:35.481Z,88.80
2019-04-10T05:52:08.257Z,89.20
2019-04-10T05:52:41.309Z,89.60
2019-04-10T05:53:13.842Z,90.00
2019-04-10T05:53:47.075Z,90.20
2019-04-10T05:54:21.010Z,90.70
2019-04-10T05:54:53.814Z,91.20
2019-04-10T05:55:26.666Z,91.30
2019-04-10T05:55:59.427Z,91.10
2019-04-10T05:56:31.943Z,91.20
2019-04-10T05:57:04.482Z,91.40
2019-04-10T05:57:37.155Z,91.50
2019-04-10T05:58:09.712Z,91.50
2019-04-10T05:58:44.864Z,91.50
2019-04-10T05:59:17.453Z,91.60
2019-04-10T05:59:50.206Z,92.00
2019-04-10T06:00:23.078Z,92.30
2019-04-10T06:00:57.030Z,92.20
2019-04-10T06:01:35.069Z,92.10
2019-04-10T06:02:05.088Z,92.20
2019-04-10T06:02:39.707Z,92.40
2019-04-10T06:03:12.449Z,92.40
2019-04-10T06:03:45.750Z,92.40
2019-04-10T06:04:19.650Z,92.50
2019-04-10T06:04:53.858Z,92.00
2019-04-10T06:05:27.268Z,92.20
2019-04-10T06:06:01.163Z,92.70
2019-04-10T06:06:34.612Z,93.10
2019-04-10T06:07:07.294Z,93.60
2019-04-10T06:07:39.830Z,94.00
2019-04-10T06:08:12.390Z,94.00
2019-04-10T06:08:44.931Z,93.70
2019-04-10T06:09:17.516Z,93.80
2019-04-10T06:09:55.891Z,93.80
2019-04-10T06:10:24.658Z,93.90
2019-04-10T06:10:58.211Z,94.00
2019-04-10T06:11:31.064Z,93.30
2019-04-10T06:12:04.173Z,92.90
2019-04-10T06:12:38.286Z,92.60
2019-04-10T06:13:10.985Z,92.70
2019-04-10T06:13:45.064Z,92.70
2019-04-10T06:14:17.862Z,93.00
2019-04-10T06:14:50.499Z,93.60
2019-04-10T06:15:23.270Z,93.70
2019-04-10T06:15:56.096Z,93.40
2019-04-10T06:16:28.631Z,93.60
2019-04-10T06:17:04.100Z,93.70
2019-04-10T06:17:36.697Z,93.80
2019-04-10T06:18:09.532Z,93.80
2019-04-10T06:18:43.065Z,93.80
2019-04-10T06:19:15.888Z,94.20
2019-04-10T06:19:48.940Z,94.50
2019-04-10T06:20:21.558Z,94.40
2019-04-10T06:20:54.602Z,94.70
2019-04-10T06:21:28.479Z,94.80
2019-04-10T06:22:01.636Z,95.00
2019-04-10T06:22:34.783Z,94.10
2019-04-10T06:23:07.476Z,93.20
2019-04-10T06:23:41.313Z,93.00
2019-04-10T06:24:14.277Z,93.00
2019-04-10T06:24:46.842Z,93.30
2019-04-10T06:25:21.421Z,93.60
2019-04-10T06:25:54.126Z,93.20
2019-04-10T06:26:28.039Z,93.10
2019-04-10T06:27:01.746Z,92.40
2019-04-10T06:27:34.713Z,92.80
2019-04-10T06:28:07.416Z,92.90
2019-04-10T06:28:40.103Z,92.70
2019-04-10T06:29:12.889Z,93.10
2019-04-10T06:29:46.279Z,93.20
2019-04-10T06:30:19.700Z,93.40
2019-04-10T06:30:52.806Z,94.20
2019-04-10T06:31:25.356Z,94.60
2019-04-10T06:31:58.239Z,94.50
2019-04-10T06:32:31.681Z,94.60
2019-04-10T06:33:04.716Z,94.90
2019-04-10T06:33:37.259Z,94.50
2019-04-10T06:34:11.173Z,94.10
2019-04-10T06:34:44.475Z,93.10
2019-04-10T06:35:17.010Z,93.40
2019-04-10T06:35:50.896Z,93.10
2019-04-10T06:36:23.517Z,92.60
2019-04-10T06:36:56.395Z,92.20
2019-04-10T06:37:28.943Z,92.70
2019-04-10T06:38:02.349Z,92.70
2019-04-10T06:38:35.101Z,93.10
2019-04-10T06:39:08.763Z,93.50
2019-04-10T06:39:43.399Z,92.80
2019-04-10T06:40:19.659Z,92.70
2019-04-10T06:40:50.947Z,92.80
2019-04-10T06:41:24.349Z,92.30
2019-04-10T06:41:57.968Z,91.70
2019-04-10T06:42:38.825Z,91.80
2019-04-10T06:43:05.233Z,91.90
2019-04-10T06:43:39.248Z,92.10
2019-04-10T06:44:11.908Z,91.70
2019-04-10T06:44:45.985Z,91.70
2019-04-10T06:45:19.752Z,91.60
2019-04-10T06:45:52.500Z,91.50
2019-04-10T06:46:25.309Z,91.50
2019-04-10T06:46:58.260Z,91.40
2019-04-10T06:47:30.893Z,91.10
2019-04-10T06:48:03.774Z,90.10
2019-04-10T06:48:36.322Z,89.70
2019-04-10T06:49:09.302Z,88.70
2019-04-10T06:49:42.020Z,89.50
2019-04-10T06:50:14.867Z,90.30
2019-04-10T06:50:47.615Z,90.20
2019-04-10T06:51:21.307Z,89.90
2019-04-10T06:51:54.231Z,89.70
2019-04-10T06:52:27.306Z,89.80
2019-04-10T06:52:59.979Z,88.50
2019-04-10T06:53:33.208Z,88.80
2019-04-10T06:54:10.840Z,89.30
2019-04-10T06:54:40.720Z,89.70
2019-04-10T06:55:13.761Z,90.20
2019-04-10T06:55:46.873Z,90.10
2019-04-10T06:56:20.834Z,89.60
2019-04-10T06:56:54.460Z,88.80
2019-04-10T06:57:27.222Z,88.20
2019-04-10T06:58:00.867Z,89.30
2019-04-10T06:58:33.986Z,90.00
2019-04-10T06:59:06.742Z,89.40
2019-04-10T06:59:39.879Z,89.50
2019-04-10T07:00:16.498Z,90.00
2019-04-10T07:00:52.166Z,90.20
2019-04-10T07:01:24.506Z,90.60
2019-04-10T07:02:11.446Z,90.70
2019-04-10T07:02:33.878Z,90.20
2019-04-10T07:03:06.895Z,89.30
2019-04-10T07:03:52.718Z,88.10
2019-04-10T07:04:14.007Z,88.10
2019-04-10T07:04:53.294Z,86.40
2019-04-10T07:05:21.890Z,86.90
2019-04-10T07:06:07.268Z,86.50
2019-04-10T07:06:44.655Z,86.80
2019-04-10T07:07:09.429Z,85.20
2019-04-10T07:07:47.422Z,84.00
2019-04-10T07:08:16.430Z,82.70
2019-04-10T07:08:48.876Z,83.80
2019-04-10T07:09:24.729Z,83.90
2019-04-10T07:09:57.145Z,83.60
2019-04-10T07:10:40.825Z,82.80
2019-04-10T07:11:09.039Z,82.20
2019-04-10T07:11:38.999Z,79.90